Terminal Aerodrome Forecast
Issued by NWS Spokane, WA

Home | Current Version | Previous Version | Text Only | Print | Product List | Glossary On
Versions: 1 2 3 4 5 6 7 8 9 10 11 12 13 14 15 16 17 18 19 20 21 22 23 24 25 26
000
FTUS46 KOTX 272339
TAFLWS
TAF
KLWS 272339Z 2800/2824 26006KT P6SM SKC
     FM280300 26010KT P6SM VCTS SCT060 BKN080CB
     FM280500 24012KT P6SM -TSRA BKN080CB OVC100
     FM280900 24019G30KT P6SM -SHRA BKN040 OVC060
     FM281300 27022G33KT P6SM FEW070
     FM282100 27016G24KT P6SM SCT060=

USA.gov is the U.S. government's official web portal to all federal, state and local government web resources and services.